createdAt,value
2019-06-07T00:00:51.238Z,14.60
2019-06-07T00:03:27.461Z,14.50
2019-06-07T00:05:53.306Z,14.50
2019-06-07T00:08:28.579Z,14.50
2019-06-07T00:10:53.653Z,14.50
2019-06-07T00:13:23.005Z,14.40
2019-06-07T00:15:52.385Z,14.40
2019-06-07T00:18:25.817Z,14.40
2019-06-07T00:20:52.730Z,14.40
2019-06-07T00:23:22.900Z,14.30
2019-06-07T00:25:52.457Z,14.30
2019-06-07T00:28:21.778Z,14.30
2019-06-07T00:30:52.615Z,14.30
2019-06-07T00:33:24.532Z,14.30
2019-06-07T00:35:53.405Z,14.30
2019-06-07T00:38:23.695Z,14.20
2019-06-07T00:40:53.025Z,14.20
2019-06-07T00:43:28.051Z,14.20
2019-06-07T00:45:53.372Z,14.20
2019-06-07T00:48:31.813Z,14.20
2019-06-07T00:50:53.798Z,14.10
2019-06-07T00:53:31.920Z,14.10
2019-06-07T00:55:54.146Z,14.10
2019-06-07T00:58:27.471Z,14.10
2019-06-07T01:00:54.575Z,14.10
2019-06-07T01:03:25.837Z,14.10
2019-06-07T01:05:54.942Z,14.10
2019-06-07T01:08:28.182Z,14.10
2019-06-07T01:10:55.314Z,14.10
2019-06-07T01:13:26.775Z,14.00
2019-06-07T01:15:55.786Z,14.00
2019-06-07T01:18:37.447Z,14.00
2019-06-07T01:20:56.210Z,14.00
2019-06-07T01:23:59.457Z,14.00
2019-06-07T01:25:56.554Z,13.90
2019-06-07T01:28:27.106Z,13.90
2019-06-07T01:30:56.950Z,13.90
2019-06-07T01:33:46.380Z,13.90
2019-06-07T01:35:57.409Z,13.90
2019-06-07T01:38:26.867Z,13.80
2019-06-07T01:40:56.356Z,13.80
2019-06-07T01:43:27.057Z,13.80
2019-06-07T01:45:56.699Z,13.80
2019-06-07T01:48:38.725Z,13.80
2019-06-07T01:50:57.047Z,13.80
2019-06-07T01:53:28.456Z,13.80
2019-06-07T01:55:57.470Z,13.80
2019-06-07T01:58:29.122Z,13.80
2019-06-07T02:00:57.818Z,13.70
2019-06-07T02:03:32.182Z,13.70
2019-06-07T02:05:58.165Z,13.70
2019-06-07T02:08:34.005Z,13.70
2019-06-07T02:10:58.520Z,13.70
2019-06-07T02:13:29.342Z,13.70
2019-06-07T02:15:58.928Z,13.70
2019-06-07T02:18:33.324Z,13.70
2019-06-07T02:20:59.488Z,13.70
2019-06-07T02:23:31.663Z,13.60
2019-06-07T02:25:59.863Z,13.60
2019-06-07T02:28:42.260Z,13.60
2019-06-07T02:31:00.815Z,13.60
2019-06-07T02:33:35.063Z,13.60
2019-06-07T02:36:01.242Z,13.50
2019-06-07T02:38:32.641Z,13.50
2019-06-07T02:41:01.590Z,13.50
2019-06-07T02:43:35.135Z,13.50
2019-06-07T02:46:23.867Z,13.50
2019-06-07T02:48:39.538Z,13.40
2019-06-07T02:51:04.063Z,13.40
2019-06-07T02:53:39.531Z,13.40
2019-06-07T02:58:41.580Z,13.40
2019-06-07T03:01:09.538Z,13.40
2019-06-07T03:03:39.916Z,13.30
2019-06-07T03:06:11.205Z,13.40
2019-06-07T03:08:42.645Z,13.40
2019-06-07T03:11:13.690Z,13.40
2019-06-07T03:13:46.312Z,13.40
2019-06-07T03:16:23.482Z,13.30
2019-06-07T03:19:06.145Z,13.30
2019-06-07T03:21:41.695Z,13.30
2019-06-07T03:24:11.221Z,13.30
2019-06-07T03:27:30.530Z,13.30
2019-06-07T03:29:11.574Z,13.30
2019-06-07T03:31:47.077Z,13.20
2019-06-07T03:34:11.957Z,13.20
2019-06-07T03:36:42.270Z,13.20
2019-06-07T03:39:11.600Z,13.20
2019-06-07T03:41:55.689Z,13.20
2019-06-07T03:44:11.969Z,13.20
2019-06-07T03:46:41.901Z,13.10
2019-06-07T03:49:11.473Z,13.10
2019-06-07T03:51:41.013Z,13.10
2019-06-07T03:54:10.477Z,13.10
2019-06-07T03:56:41.164Z,13.10
2019-06-07T03:59:10.606Z,13.00
2019-06-07T04:01:41.133Z,13.00
2019-06-07T04:04:10.847Z,13.00
2019-06-07T04:06:42.455Z,12.90
2019-06-07T04:09:11.193Z,12.90
2019-06-07T04:11:40.900Z,12.90
2019-06-07T04:14:11.398Z,12.90
2019-06-07T04:16:44.412Z,12.90
2019-06-07T04:19:11.742Z,12.90
2019-06-07T04:21:42.967Z,12.90
2019-06-07T04:24:12.089Z,12.90
2019-06-07T04:26:43.764Z,12.90
2019-06-07T04:31:43.522Z,13.00
2019-06-07T04:34:12.872Z,13.00
2019-06-07T04:36:56.528Z,13.00
2019-06-07T04:39:13.977Z,13.00
2019-06-07T04:41:45.706Z,13.10
2019-06-07T04:44:17.138Z,13.10
2019-06-07T04:46:49.577Z,13.20
2019-06-07T04:49:21.008Z,13.20
2019-06-07T04:51:51.241Z,13.30
2019-06-07T04:54:20.566Z,13.30
2019-06-07T04:56:49.890Z,13.40
2019-06-07T05:00:01.082Z,13.40
2019-06-07T05:01:50.319Z,13.50
2019-06-07T05:04:19.973Z,13.50
2019-06-07T05:06:49.311Z,13.50
2019-06-07T05:09:18.713Z,13.60
2019-06-07T05:11:48.061Z,13.60
2019-06-07T05:14:17.771Z,13.60
2019-06-07T05:16:47.135Z,13.60
2019-06-07T05:19:16.518Z,13.70
2019-06-07T05:22:02.515Z,13.70
2019-06-07T05:24:18.024Z,13.70
2019-06-07T05:26:47.373Z,13.80
2019-06-07T05:29:16.697Z,13.80
2019-06-07T05:31:46.568Z,13.90
2019-06-07T05:34:15.882Z,14.00
2019-06-07T05:36:45.330Z,14.10
2019-06-07T05:39:14.719Z,14.20
2019-06-07T05:41:44.521Z,14.30
2019-06-07T05:44:15.210Z,14.40
2019-06-07T05:46:47.177Z,14.50
2019-06-07T05:49:15.709Z,14.60
2019-06-07T05:51:45.212Z,14.80
2019-06-07T05:54:15.811Z,14.90
2019-06-07T05:56:45.503Z,15.10
2019-06-07T05:59:14.955Z,15.20
2019-06-07T06:01:53.396Z,15.40
2019-06-07T06:04:16.378Z,15.50
2019-06-07T06:06:47.189Z,15.70
2019-06-07T06:09:16.725Z,15.90
2019-06-07T06:11:59.685Z,16.10
2019-06-07T06:14:17.078Z,16.30
2019-06-07T06:16:49.374Z,16.50
2019-06-07T06:19:17.502Z,16.70
2019-06-07T06:21:47.086Z,16.90
2019-06-07T06:24:16.421Z,17.00
2019-06-07T06:26:51.244Z,17.20
2019-06-07T06:29:17.771Z,17.40
2019-06-07T06:32:39.184Z,17.50
2019-06-07T06:34:18.138Z,17.70
2019-06-07T06:36:50.370Z,17.90
2019-06-07T06:39:18.613Z,18.00
2019-06-07T06:41:58.621Z,18.20
2019-06-07T06:44:18.984Z,18.40
2019-06-07T06:46:57.007Z,18.60
2019-06-07T06:49:19.370Z,18.80
2019-06-07T06:51:53.342Z,19.00
2019-06-07T06:54:39.522Z,19.10
2019-06-07T06:56:52.769Z,19.30
2019-06-07T06:59:37.962Z,19.50
2019-06-07T07:01:53.010Z,19.60
2019-06-07T07:04:23.734Z,19.70
2019-06-07T07:06:55.189Z,19.80
2019-06-07T07:09:25.041Z,19.90
2019-06-07T07:12:10.282Z,20.00
2019-06-07T07:14:25.400Z,20.00
2019-06-07T07:16:56.666Z,20.00
2019-06-07T07:19:25.789Z,20.00
2019-06-07T07:21:55.479Z,20.00
2019-06-07T07:24:26.578Z,20.00
2019-06-07T07:26:58.261Z,19.90
2019-06-07T07:29:27.007Z,19.90
2019-06-07T07:31:56.746Z,19.90
2019-06-07T07:34:36.015Z,20.00
2019-06-07T07:36:59.621Z,20.00
2019-06-07T07:39:29.371Z,20.20
2019-06-07T07:42:17.933Z,20.40
2019-06-07T07:44:29.730Z,20.50
2019-06-07T07:46:59.056Z,20.80
2019-06-07T07:49:28.418Z,21.00
2019-06-07T07:51:59.074Z,21.20
2019-06-07T07:54:28.689Z,21.40
2019-06-07T07:56:58.082Z,21.60
2019-06-07T07:59:41.882Z,21.80
2019-06-07T08:01:58.765Z,22.00
2019-06-07T08:05:11.971Z,22.20
2019-06-07T08:06:59.282Z,22.30
2019-06-07T08:09:29.690Z,22.40
2019-06-07T08:12:00.704Z,22.50
2019-06-07T08:14:31.854Z,22.60
2019-06-07T08:17:01.168Z,22.70
2019-06-07T08:19:30.520Z,22.70
2019-06-07T08:22:01.769Z,22.80
2019-06-07T08:24:30.910Z,22.90
2019-06-07T08:27:24.230Z,23.10
2019-06-07T08:29:44.142Z,23.30
2019-06-07T08:32:02.348Z,23.40
2019-06-07T08:34:31.674Z,23.50
2019-06-07T08:37:01.933Z,23.70
2019-06-07T08:39:32.669Z,23.80
2019-06-07T08:42:15.602Z,23.90
2019-06-07T08:44:33.015Z,24.00
2019-06-07T08:47:18.879Z,24.10
2019-06-07T08:49:34.507Z,24.20
2019-06-07T08:52:11.054Z,24.30
2019-06-07T08:54:34.881Z,24.50
2019-06-07T08:57:20.045Z,24.60
2019-06-07T08:59:35.234Z,24.70
2019-06-07T09:02:22.569Z,24.90
2019-06-07T09:04:35.720Z,25.10
2019-06-07T09:07:15.208Z,25.20
2019-06-07T09:09:36.069Z,25.40
2019-06-07T09:12:10.913Z,25.50
2019-06-07T09:14:56.466Z,25.60
2019-06-07T09:17:12.066Z,25.70
2019-06-07T09:19:39.572Z,25.80
2019-06-07T09:22:11.377Z,25.90
2019-06-07T09:24:39.918Z,26.00
2019-06-07T09:27:10.474Z,26.10
2019-06-07T09:29:40.119Z,26.20
2019-06-07T09:32:14.655Z,26.30
2019-06-07T09:34:40.493Z,26.50
2019-06-07T09:38:02.727Z,26.50
2019-06-07T09:39:41.392Z,26.60
2019-06-07T09:42:12.642Z,26.60
2019-06-07T09:44:41.785Z,26.70
2019-06-07T09:47:30.150Z,26.70
2019-06-07T09:49:43.158Z,26.80
2019-06-07T09:52:12.525Z,26.80
2019-06-07T09:55:06.078Z,26.90
2019-06-07T09:57:17.515Z,26.90
2019-06-07T09:59:45.009Z,27.00
2019-06-07T10:02:14.331Z,27.00
2019-06-07T10:04:43.677Z,27.20
2019-06-07T10:07:30.666Z,27.20
2019-06-07T10:12:15.046Z,27.50
2019-06-07T10:14:45.301Z,27.60
2019-06-07T10:17:14.877Z,27.70
2019-06-07T10:19:44.209Z,27.80
2019-06-07T10:22:13.526Z,27.90
2019-06-07T10:24:42.865Z,28.00
2019-06-07T10:27:12.207Z,28.10
2019-06-07T10:29:41.526Z,28.20
2019-06-07T10:32:11.388Z,28.30
2019-06-07T10:34:40.928Z,28.30
2019-06-07T10:37:14.902Z,28.40
2019-06-07T10:39:48.512Z,28.50
2019-06-07T10:42:12.597Z,28.60
2019-06-07T10:44:41.993Z,28.70
2019-06-07T10:47:12.330Z,28.80
2019-06-07T10:49:41.814Z,28.80
2019-06-07T10:52:11.698Z,28.90
2019-06-07T10:54:42.157Z,29.00
2019-06-07T10:57:14.554Z,29.10
2019-06-07T10:59:42.526Z,29.20
2019-06-07T11:02:11.990Z,29.40
2019-06-07T11:04:42.550Z,29.40
2019-06-07T11:07:12.102Z,29.50
2019-06-07T11:09:41.446Z,29.60
2019-06-07T11:12:10.937Z,29.70
2019-06-07T11:14:40.276Z,29.70
2019-06-07T11:17:11.163Z,29.80
2019-06-07T11:19:40.790Z,29.90
2019-06-07T11:22:10.263Z,29.90
2019-06-07T11:24:39.686Z,30.00
2019-06-07T11:27:11.685Z,30.00
2019-06-07T11:29:41.004Z,30.00
2019-06-07T11:32:10.613Z,29.90
2019-06-07T11:34:40.006Z,29.80
2019-06-07T11:37:11.741Z,29.60
2019-06-07T11:39:41.446Z,29.40
2019-06-07T11:42:12.080Z,29.20
2019-06-07T11:44:55.760Z,29.00
2019-06-07T11:47:12.574Z,28.80
2019-06-07T11:49:41.924Z,28.60
2019-06-07T11:52:13.847Z,28.40
2019-06-07T11:54:43.386Z,28.30
2019-06-07T11:57:12.993Z,28.20
2019-06-07T11:59:42.547Z,28.10
2019-06-07T12:02:13.298Z,27.90
2019-06-07T12:04:43.103Z,27.80
2019-06-07T12:07:13.763Z,27.80
2019-06-07T12:09:55.969Z,27.70
2019-06-07T12:12:14.590Z,27.60
2019-06-07T12:14:44.010Z,27.50
2019-06-07T12:17:13.510Z,27.40
2019-06-07T12:19:42.930Z,27.40
2019-06-07T12:22:13.972Z,27.40
2019-06-07T12:24:43.633Z,27.30
2019-06-07T12:27:12.975Z,27.30
2019-06-07T12:29:43.264Z,27.30
2019-06-07T12:32:13.331Z,27.30
2019-06-07T12:34:42.789Z,27.20
2019-06-07T12:37:12.173Z,27.20
2019-06-07T12:39:41.542Z,27.20
2019-06-07T12:42:12.314Z,27.20
2019-06-07T12:44:41.896Z,27.30
2019-06-07T12:47:11.288Z,27.30
2019-06-07T12:49:40.606Z,27.30
2019-06-07T12:52:13.688Z,27.20
2019-06-07T12:54:41.293Z,27.30
2019-06-07T12:57:10.663Z,27.30
2019-06-07T12:59:39.982Z,27.30
2019-06-07T13:02:09.322Z,27.30
2019-06-07T13:04:38.633Z,27.40
2019-06-07T13:07:08.033Z,27.40
2019-06-07T13:09:37.460Z,27.40
2019-06-07T13:12:06.826Z,27.40
2019-06-07T13:14:36.173Z,27.40
2019-06-07T13:17:05.815Z,27.40
2019-06-07T13:19:35.140Z,27.40
2019-06-07T13:22:04.569Z,27.40
2019-06-07T13:24:33.963Z,27.40
2019-06-07T13:27:03.360Z,27.40
2019-06-07T13:29:32.701Z,27.50
2019-06-07T13:32:02.090Z,27.50
2019-06-07T13:34:31.406Z,27.50
2019-06-07T13:37:00.748Z,27.50
2019-06-07T13:39:30.146Z,27.50
2019-06-07T13:41:59.470Z,27.50
2019-06-07T13:44:29.347Z,27.50
2019-06-07T13:46:58.906Z,27.60
2019-06-07T13:49:28.230Z,27.60
2019-06-07T13:51:57.562Z,27.60
2019-06-07T13:54:27.748Z,27.60
2019-06-07T13:57:02.270Z,27.60
2019-06-07T13:59:28.548Z,27.70
2019-06-07T14:01:58.014Z,27.70
2019-06-07T14:04:27.343Z,27.70
2019-06-07T14:06:56.690Z,27.80
2019-06-07T14:09:27.474Z,27.80
2019-06-07T14:11:57.124Z,27.80
2019-06-07T14:14:29.082Z,27.80
2019-06-07T14:16:58.546Z,27.90
2019-06-07T14:19:28.760Z,27.90
2019-06-07T14:21:58.185Z,27.90
2019-06-07T14:24:27.502Z,27.90
2019-06-07T14:27:08.839Z,27.90
2019-06-07T14:29:38.490Z,28.00
2019-06-07T14:32:08.415Z,28.00
2019-06-07T14:34:37.971Z,28.00
2019-06-07T14:37:07.392Z,28.00
2019-06-07T14:39:36.768Z,28.00
2019-06-07T14:42:09.658Z,28.00
2019-06-07T14:44:37.185Z,28.10
2019-06-07T14:47:06.603Z,28.10
2019-06-07T14:49:36.033Z,28.00
2019-06-07T14:52:06.497Z,28.10
2019-06-07T14:54:38.863Z,28.10
2019-06-07T14:57:06.938Z,28.10
2019-06-07T14:59:36.259Z,28.10
2019-06-07T15:02:05.593Z,28.10
2019-06-07T15:04:34.918Z,28.10
2019-06-07T15:07:04.478Z,28.10
2019-06-07T15:09:35.301Z,28.20
2019-06-07T15:12:04.972Z,28.20
2019-06-07T15:14:35.495Z,28.20
2019-06-07T15:17:05.136Z,28.20
2019-06-07T15:19:36.293Z,28.30
2019-06-07T15:22:05.574Z,28.30
2019-06-07T15:24:38.627Z,28.30
2019-06-07T15:27:05.922Z,28.30
2019-06-07T15:29:36.002Z,28.30
2019-06-07T15:32:05.506Z,28.30
2019-06-07T15:34:36.222Z,28.30
2019-06-07T15:37:05.749Z,28.40
2019-06-07T15:39:35.069Z,28.30
2019-06-07T15:42:04.661Z,28.30
2019-06-07T15:44:35.337Z,28.40
2019-06-07T15:47:04.820Z,28.40
2019-06-07T15:49:34.222Z,28.30
2019-06-07T15:52:03.612Z,28.40
2019-06-07T15:54:32.950Z,28.40
2019-06-07T15:57:02.279Z,28.30
2019-06-07T15:59:31.618Z,28.40
2019-06-07T16:02:00.986Z,28.30
2019-06-07T16:04:31.380Z,28.40
2019-06-07T16:07:00.870Z,28.40
2019-06-07T16:09:30.442Z,28.40
2019-06-07T16:11:59.775Z,28.40
2019-06-07T16:14:29.112Z,28.40
2019-06-07T16:16:58.430Z,28.50
2019-06-07T16:19:27.768Z,28.50
2019-06-07T16:21:57.092Z,28.50
2019-06-07T16:24:26.441Z,28.50
2019-06-07T16:26:55.761Z,28.50
2019-06-07T16:29:25.094Z,28.50
2019-06-07T16:31:54.414Z,28.50
2019-06-07T16:34:23.739Z,28.50
2019-06-07T16:36:53.062Z,28.50
2019-06-07T16:39:22.394Z,28.50
2019-06-07T16:41:52.058Z,28.40
2019-06-07T16:44:21.398Z,28.30
2019-06-07T16:46:50.718Z,28.20
2019-06-07T16:49:20.059Z,27.90
2019-06-07T16:51:49.538Z,27.60
2019-06-07T16:54:18.987Z,27.20
2019-06-07T16:56:51.201Z,26.80
2019-06-07T16:59:19.343Z,26.60
2019-06-07T17:01:49.582Z,26.30
2019-06-07T17:04:19.093Z,26.00
2019-06-07T17:06:48.550Z,25.70
2019-06-07T17:09:17.886Z,25.50
2019-06-07T17:11:48.507Z,25.30
2019-06-07T17:14:17.990Z,25.20
2019-06-07T17:16:48.721Z,25.00
2019-06-07T17:19:18.361Z,24.90
2019-06-07T17:21:47.687Z,24.80
2019-06-07T17:24:18.089Z,24.60
2019-06-07T17:26:47.732Z,24.40
2019-06-07T17:29:17.218Z,24.20
2019-06-07T17:31:46.559Z,24.00
2019-06-07T17:34:15.950Z,23.70
2019-06-07T17:36:46.355Z,23.50
2019-06-07T17:39:15.873Z,23.30
2019-06-07T17:41:56.240Z,23.00
2019-06-07T17:44:16.296Z,22.80
2019-06-07T17:46:45.679Z,22.70
2019-06-07T17:49:15.009Z,22.50
2019-06-07T17:51:45.739Z,22.30
2019-06-07T17:54:15.258Z,22.20
2019-06-07T17:56:44.659Z,22.10
2019-06-07T17:59:13.993Z,22.00
2019-06-07T18:02:05.894Z,21.90
2019-06-07T18:04:14.643Z,21.80
2019-06-07T18:06:45.321Z,21.70
2019-06-07T18:09:15.318Z,21.70
2019-06-07T18:11:45.759Z,21.60
2019-06-07T18:14:15.327Z,21.60
2019-06-07T18:16:46.309Z,21.50
2019-06-07T18:19:15.745Z,21.50
2019-06-07T18:21:45.084Z,21.40
2019-06-07T18:24:14.470Z,21.40
2019-06-07T18:26:43.786Z,21.30
2019-06-07T18:29:13.131Z,21.20
2019-06-07T18:31:42.448Z,21.20
2019-06-07T18:34:11.783Z,21.10
2019-06-07T18:36:41.100Z,21.10
2019-06-07T18:39:10.433Z,21.00
2019-06-07T18:41:39.755Z,20.90
2019-06-07T18:44:21.195Z,20.90
2019-06-07T18:46:40.105Z,20.80
2019-06-07T18:49:09.445Z,20.80
2019-06-07T18:51:38.775Z,20.70
2019-06-07T18:54:08.105Z,20.70
2019-06-07T18:56:37.501Z,20.70
2019-06-07T18:59:06.965Z,20.60
2019-06-07T19:01:36.304Z,20.60
2019-06-07T19:04:05.630Z,20.50
2019-06-07T19:06:34.962Z,20.50
2019-06-07T19:09:06.178Z,20.40
2019-06-07T19:11:35.619Z,20.40
2019-06-07T19:14:05.008Z,20.40
2019-06-07T19:16:34.342Z,20.40
2019-06-07T19:19:03.721Z,20.30
2019-06-07T19:21:33.058Z,20.30
2019-06-07T19:24:02.376Z,20.20
2019-06-07T19:26:31.707Z,20.20
2019-06-07T19:29:01.030Z,20.20
2019-06-07T19:31:30.361Z,20.10
2019-06-07T19:33:59.679Z,20.10
2019-06-07T19:36:29.010Z,20.00
2019-06-07T19:38:58.357Z,20.00
2019-06-07T19:41:27.757Z,19.90
2019-06-07T19:43:58.182Z,19.90
2019-06-07T19:46:27.595Z,19.80
2019-06-07T19:48:56.912Z,19.80
2019-06-07T19:51:26.243Z,19.80
2019-06-07T19:53:55.574Z,19.70
2019-06-07T19:56:24.965Z,19.70
2019-06-07T19:58:55.466Z,19.60
2019-06-07T20:01:24.948Z,19.60
2019-06-07T20:03:54.264Z,19.50
2019-06-07T20:06:23.598Z,19.50
2019-06-07T20:08:54.291Z,19.50
2019-06-07T20:11:23.802Z,19.40
2019-06-07T20:13:54.396Z,19.40
2019-06-07T20:16:23.797Z,19.40
2019-06-07T20:18:53.122Z,19.30
2019-06-07T20:21:22.454Z,19.30
2019-06-07T20:23:51.770Z,19.20
2019-06-07T20:26:21.130Z,19.20
2019-06-07T20:28:50.470Z,19.20
2019-06-07T20:31:19.807Z,19.20
2019-06-07T20:33:49.138Z,19.20
2019-06-07T20:36:18.474Z,19.10
2019-06-07T20:38:47.795Z,19.10
2019-06-07T20:41:17.126Z,19.10
2019-06-07T20:43:46.455Z,19.00
2019-06-07T20:46:15.787Z,19.00
2019-06-07T20:48:45.102Z,19.00
2019-06-07T20:51:14.439Z,19.00
2019-06-07T20:53:43.754Z,19.00
2019-06-07T20:56:13.081Z,19.00
2019-06-07T20:58:42.406Z,19.00
2019-06-07T21:01:11.842Z,19.00
2019-06-07T21:03:41.162Z,19.00
2019-06-07T21:06:10.490Z,19.00
2019-06-07T21:08:39.806Z,19.00
2019-06-07T21:11:09.863Z,19.00
2019-06-07T21:13:39.229Z,19.00
2019-06-07T21:16:08.566Z,19.00
2019-06-07T21:18:37.905Z,19.00
2019-06-07T21:21:08.469Z,19.00
2019-06-07T21:23:37.997Z,19.00
2019-06-07T21:26:07.317Z,19.00
2019-06-07T21:28:39.663Z,19.00
2019-06-07T21:31:08.218Z,18.90
2019-06-07T21:33:37.680Z,18.90
2019-06-07T21:36:07.797Z,18.90
2019-06-07T21:38:37.350Z,18.90
2019-06-07T21:41:06.661Z,18.90
2019-06-07T21:43:36.048Z,18.90
2019-06-07T21:46:10.172Z,18.80
2019-06-07T21:48:36.467Z,18.80
2019-06-07T21:51:06.406Z,18.80
2019-06-07T21:53:35.894Z,18.80
2019-06-07T21:56:05.216Z,18.80
2019-06-07T21:58:34.541Z,18.80
2019-06-07T22:01:15.305Z,18.80
2019-06-07T22:03:44.886Z,18.80
2019-06-07T22:06:14.368Z,18.80
2019-06-07T22:08:43.771Z,18.80
2019-06-07T22:11:14.130Z,18.80
2019-06-07T22:13:43.818Z,18.80
2019-06-07T22:16:26.779Z,18.80
2019-06-07T22:18:44.225Z,18.80
2019-06-07T22:21:14.707Z,18.80
2019-06-07T22:23:44.259Z,18.80
2019-06-07T22:26:15.592Z,18.80
2019-06-07T22:28:45.162Z,18.80
2019-06-07T22:31:14.974Z,18.80
2019-06-07T22:33:44.462Z,18.80
2019-06-07T22:36:15.898Z,18.80
2019-06-07T22:38:44.830Z,18.80
2019-06-07T22:41:14.484Z,18.80
2019-06-07T22:43:45.065Z,18.80
2019-06-07T22:46:15.058Z,18.80
2019-06-07T22:48:45.640Z,18.80
2019-06-07T22:51:16.490Z,18.80
2019-06-07T22:53:45.862Z,18.80
2019-06-07T22:56:18.165Z,18.80
2019-06-07T22:58:48.615Z,18.80
2019-06-07T23:01:20.070Z,18.80
2019-06-07T23:03:48.962Z,18.80
2019-06-07T23:06:18.982Z,18.80
2019-06-07T23:08:48.508Z,18.90
2019-06-07T23:11:19.395Z,18.80
2019-06-07T23:13:48.901Z,18.90
2019-06-07T23:16:18.290Z,18.90
2019-06-07T23:18:47.650Z,18.90
2019-06-07T23:21:17.903Z,18.90
2019-06-07T23:23:47.453Z,18.90
2019-06-07T23:26:16.793Z,18.90
2019-06-07T23:28:46.105Z,18.90
2019-06-07T23:31:16.561Z,18.90
2019-06-07T23:33:46.037Z,18.90
2019-06-07T23:36:15.443Z,18.90
2019-06-07T23:38:44.758Z,18.90
2019-06-07T23:41:15.513Z,18.90
2019-06-07T23:43:46.169Z,19.00
2019-06-07T23:46:15.585Z,19.00
2019-06-07T23:48:44.901Z,19.00
2019-06-07T23:51:15.537Z,19.00
2019-06-07T23:53:44.994Z,19.00
2019-06-07T23:56:14.329Z,19.10
2019-06-07T23:58:43.651Z,19.10
